Time;durP1;ratioP1;P1;durP2;ratioP2;P2;SDS_P1;SDS_P2;PMS_P1;PMS_P2;Temp;Humidity;BMP_temperature;BMP_pressure;BME280_temperature;BME280_humidity;BME280_pressure;Samples;Min_cycle;Max_cycle;Signal;HPM_P1;HPM_P2
2021/11/25 00:00:17;;;;;;;34.53;20.07;;;;;;;5.18;81.51;101564.91;5112962;28;20031;-63
2021/11/25 00:02:42;;;;;;;36.65;20.33;;;;;;;5.15;81.61;101565.13;5112759;28;20027;-63
2021/11/25 00:05:09;;;;;;;34.80;19.50;;;;;;;5.12;81.52;101560.88;5112782;28;20024;-63
2021/11/25 00:07:34;;;;;;;;;;;;;;;5.11;81.78;101559.16;5113336;28;20028;-63
2021/11/25 00:09:59;;;;;;;36.10;19.73;;;;;;;5.11;80.98;101551.25;5111745;28;20487;-63
2021/11/25 00:12:25;;;;;;;33.40;17.83;;;;;;;5.11;81.17;101556.53;5112373;28;20047;-63
2021/11/25 00:14:50;;;;;;;39.07;18.97;;;;;;;5.10;81.12;101546.91;5112746;28;20368;-63
2021/11/25 00:17:16;;;;;;;36.63;19.27;;;;;;;5.11;80.76;101548.59;5112715;28;20027;-63
2021/11/25 00:19:42;;;;;;;37.05;19.25;;;;;;;5.11;80.31;101540.69;5112368;28;20269;-63
2021/11/25 00:22:07;;;;;;;36.33;18.63;;;;;;;5.15;79.83;101538.69;5112569;28;20151;-63
2021/11/25 00:24:33;;;;;;;37.63;20.20;;;;;;;5.14;79.45;101539.63;5112531;28;20050;-63
2021/11/25 00:26:58;;;;;;;33.07;18.40;;;;;;;5.13;79.38;101541.44;5112525;28;20410;-63
2021/11/25 00:29:23;;;;;;;38.30;19.37;;;;;;;5.11;79.17;101539.84;5112464;28;20028;-63
2021/11/25 00:31:49;;;;;;;40.53;19.00;;;;;;;5.10;78.99;101538.13;5112398;28;20390;-64
2021/11/25 00:34:14;;;;;;;33.77;17.80;;;;;;;5.11;79.30;101534.56;5112314;28;20471;-63
2021/11/25 00:36:39;;;;;;;34.70;19.30;;;;;;;5.10;79.22;101532.84;5112198;28;20077;-63
2021/11/25 00:39:05;;;;;;;35.97;18.93;;;;;;;5.07;79.01;101525.09;5112330;28;20027;-63
2021/11/25 00:41:31;;;;;;;30.52;18.63;;;;;;;5.07;78.02;101519.81;5111897;28;20106;-64
2021/11/25 00:43:56;;;;;;;35.00;19.88;;;;;;;5.10;78.28;101528.41;5111903;28;20050;-63
2021/11/25 00:46:21;;;;;;;36.53;20.13;;;;;;;5.12;77.78;101525.66;5112049;28;20034;-64
2021/11/25 00:48:47;;;;;;;37.17;20.23;;;;;;;5.09;78.06;101524.06;5112096;28;20134;-63
2021/11/25 00:51:12;;;;;;;37.65;19.60;;;;;;;5.10;77.33;101523.13;5111681;28;20024;-63
2021/11/25 00:53:38;;;;;;;37.97;20.67;;;;;;;5.08;77.68;101521.53;5112128;28;20142;-63
2021/11/25 00:56:04;;;;;;;34.63;18.57;;;;;;;5.07;76.82;101518.03;5111887;28;20024;-64
2021/11/25 00:58:29;;;;;;;32.55;17.65;;;;;;;5.07;77.23;101515.41;5111995;28;20024;-64
2021/11/25 01:00:55;;;;;;;33.90;18.20;;;;;;;5.08;77.07;101517.09;5111792;28;20498;-63
2021/11/25 01:03:20;;;;;;;33.63;19.60;;;;;;;5.05;76.93;101522.56;5111737;28;20023;-63
2021/11/25 01:05:46;;;;;;;38.67;19.53;;;;;;;5.05;77.19;101512.00;5111464;28;20530;-63
2021/11/25 01:08:12;;;;;;;;;;;;;;;5.03;76.64;101516.56;5112069;28;20424;-63
2021/11/25 01:10:38;;;;;;;36.60;18.33;;;;;;;5.02;76.15;101513.97;5111522;28;19912;-64
2021/11/25 01:13:03;;;;;;;33.58;17.92;;;;;;;5.02;76.62;101511.34;5100521;22;20043;-63
2021/11/25 01:15:32;;;;;;;33.42;18.00;;;;;;;4.97;76.20;101501.91;5091192;28;20047;-63
2021/11/25 01:18:04;;;;;;;37.63;20.93;;;;;;;4.99;76.19;101501.84;5090948;28;20081;-63
2021/11/25 01:20:30;;;;;;;37.87;19.40;;;;;;;5.03;76.42;101498.06;5090712;28;20084;-63
2021/11/25 01:22:57;;;;;;;34.70;19.40;;;;;;;5.02;76.28;101501.63;5090861;28;20431;-63
2021/11/25 01:25:24;;;;;;;37.07;19.70;;;;;;;5.01;76.37;101505.22;5090861;28;20106;-63
2021/11/25 01:27:49;;;;;;;;;;;;;;;5.03;75.45;101505.97;5091566;28;20024;-63
2021/11/25 01:30:15;;;;;;;33.00;17.63;;;;;;;5.03;76.17;101499.84;5091107;28;19919;-63
2021/11/25 01:32:41;;;;;;;40.45;19.25;;;;;;;5.01;76.34;101509.66;5090991;28;20020;-63
2021/11/25 01:35:07;;;;;;;37.58;20.38;;;;;;;5.01;77.27;101502.56;5091069;28;20035;-63
2021/11/25 01:37:33;;;;;;;39.08;19.48;;;;;;;5.01;77.17;101501.75;5090560;28;20593;-63
2021/11/25 01:39:58;;;;;;;41.28;21.27;;;;;;;4.97;77.35;101501.91;5091191;28;20032;-63
2021/11/25 01:42:24;;;;;;;43.90;21.23;;;;;;;4.98;77.92;101511.53;5090821;28;20471;-63
2021/11/25 01:44:50;;;;;;;41.53;20.73;;;;;;;4.97;77.98;101507.22;5090873;28;20047;-63
2021/11/25 01:47:15;;;;;;;41.90;20.50;;;;;;;4.97;78.61;101504.56;5090721;28;20103;-63
2021/11/25 01:49:40;;;;;;;40.60;21.37;;;;;;;4.98;78.44;101511.53;5090641;28;20284;-64
2021/11/25 01:52:06;;;;;;;39.87;20.83;;;;;;;4.98;79.16;101498.34;5090491;28;20297;-63
2021/11/25 01:54:32;;;;;;;37.05;20.40;;;;;;;4.95;79.44;101492.41;5090731;28;20460;-63
2021/11/25 01:56:57;;;;;;;43.22;22.15;;;;;;;4.95;79.08;101501.19;5090609;28;20035;-63
2021/11/25 01:59:23;;;;;;;45.53;22.77;;;;;;;4.93;79.85;101497.78;5090672;28;20463;-63
2021/11/25 02:01:49;;;;;;;43.65;22.13;;;;;;;4.93;80.41;101474.00;5090472;28;20035;-63
2021/11/25 02:04:15;;;;;;;41.03;20.70;;;;;;;4.93;80.58;101476.66;5090568;28;20020;-63
2021/11/25 02:06:41;;;;;;;43.73;21.57;;;;;;;4.91;81.35;101478.56;5090496;28;20028;-63
2021/11/25 02:09:07;;;;;;;43.00;21.15;;;;;;;4.87;81.36;101469.13;5090541;28;20025;-63
2021/11/25 02:11:32;;;;;;;38.17;21.75;;;;;;;4.88;81.56;101467.34;5090207;28;20107;-63
2021/11/25 02:13:58;;;;;;;42.87;21.13;;;;;;;4.90;81.81;101470.72;5090491;28;20151;-63
2021/11/25 02:16:23;;;;;;;44.17;21.85;;;;;;;4.90;81.76;101474.22;5090392;28;20266;-63
2021/11/25 02:18:49;;;;;;;42.57;21.07;;;;;;;4.88;82.24;101462.91;5090476;28;20483;-63
2021/11/25 02:21:16;;;;;;;43.15;21.45;;;;;;;4.88;82.79;101460.25;5090274;28;20047;-63
2021/11/25 02:23:41;;;;;;;43.30;21.85;;;;;;;4.86;83.08;101462.16;5090112;28;20072;-63
2021/11/25 02:26:07;;;;;;;44.28;22.60;;;;;;;4.80;83.98;101463.38;5090691;28;20374;-63
2021/11/25 02:28:36;;;;;;;46.88;23.33;;;;;;;4.77;85.04;101458.31;5090351;28;20020;-63
2021/11/25 02:31:04;;;;;;;44.03;21.30;;;;;;;4.76;84.96;101453.97;5090341;28;20601;-63
2021/11/25 02:33:29;;;;;;;46.17;22.80;;;;;;;4.74;85.94;101455.00;5093527;28;20060;-63
2021/11/25 02:35:55;;;;;;;42.22;22.00;;;;;;;4.70;86.04;101451.75;5094281;28;20058;-63
2021/11/25 02:38:21;;;;;;;41.65;21.30;;;;;;;4.68;86.19;101450.97;5093994;28;20065;-63
2021/11/25 02:40:50;;;;;;;42.80;21.95;;;;;;;4.64;86.70;101449.50;5094141;28;20070;-63
2021/11/25 02:43:19;;;;;;;47.90;22.20;;;;;;;4.61;86.50;101447.88;5094243;28;20028;-63
2021/11/25 02:45:49;;;;;;;43.27;22.07;;;;;;;4.58;86.35;101439.31;5092766;28;20055;-63
2021/11/25 02:48:16;;;;;;;47.97;22.40;;;;;;;4.58;86.29;101432.25;5094037;28;20081;-63
2021/11/25 02:50:42;;;;;;;40.97;22.07;;;;;;;4.54;87.01;101432.53;5094047;28;20043;-63
2021/11/25 02:53:08;;;;;;;41.80;22.38;;;;;;;4.54;86.96;101438.66;5093823;28;20070;-63
2021/11/25 02:55:34;;;;;;;;;;;;;;;4.53;87.37;101434.34;5094616;28;20024;-63
2021/11/25 02:57:59;;;;;;;38.47;20.63;;;;;;;4.54;87.30;101438.66;5093971;28;20404;-63
2021/11/25 03:00:24;;;;;;;41.13;20.77;;;;;;;4.51;87.57;101430.94;5093917;28;20035;-63
2021/11/25 03:02:54;;;;;;;44.07;21.47;;;;;;;4.51;87.80;101427.47;5093723;28;20107;-63
2021/11/25 03:05:19;;;;;;;47.97;22.07;;;;;;;4.46;87.81;101423.31;5093717;28;20038;-63
2021/11/25 03:07:45;;;;;;;45.00;21.20;;;;;;;4.46;87.97;101414.53;5093464;28;20099;-63
2021/11/25 03:10:10;;;;;;;41.80;22.13;;;;;;;4.44;88.49;101416.44;5093575;28;20028;-64
2021/11/25 03:12:35;;;;;;;44.93;21.77;;;;;;;4.42;88.25;101413.88;5093339;28;20044;-63
2021/11/25 03:15:01;;;;;;;41.70;21.00;;;;;;;4.41;88.78;101409.56;5093509;28;20110;-63
2021/11/25 03:17:26;;;;;;;43.23;21.00;;;;;;;4.41;88.46;101409.56;5093413;28;20029;-63
2021/11/25 03:19:51;;;;;;;45.07;21.63;;;;;;;4.42;88.56;101420.97;5093370;28;20040;-63
2021/11/25 03:22:18;;;;;;;45.03;21.43;;;;;;;4.43;88.81;101412.94;5093412;28;20119;-63
2021/11/25 03:24:43;;;;;;;45.20;22.58;;;;;;;4.43;88.92;101409.47;5093047;28;20076;-64
2021/11/25 03:27:08;;;;;;;43.80;22.13;;;;;;;4.44;88.99;101406.72;5093465;28;20099;-63
2021/11/25 03:29:33;;;;;;;38.03;21.03;;;;;;;4.42;89.02;101403.31;5093209;28;20077;-63
2021/11/25 03:31:59;;;;;;;40.87;20.20;;;;;;;4.44;89.21;101400.63;5093290;28;20020;-63
2021/11/25 03:34:24;;;;;;;46.10;22.33;;;;;;;4.43;89.46;101397.09;5093159;28;20380;-63
2021/11/25 03:36:49;;;;;;;49.77;22.20;;;;;;;4.44;89.89;101395.34;5093064;28;20020;-63
2021/11/25 03:39:15;;;;;;;45.90;22.27;;;;;;;4.42;89.71;101397.22;5092848;28;20129;-63
2021/11/25 03:41:40;;;;;;;42.53;21.50;;;;;;;4.42;89.87;101397.22;5092843;28;20055;-63
2021/11/25 03:44:05;;;;;;;39.63;20.67;;;;;;;4.41;90.09;101392.88;5092833;28;20032;-63
2021/11/25 03:46:33;;;;;;;38.47;19.60;;;;;;;4.43;89.81;101393.63;5093013;28;20024;-63
2021/11/25 03:48:59;;;;;;;46.00;22.00;;;;;;;4.42;89.61;101387.50;5092886;28;20032;-63
2021/11/25 03:51:24;;;;;;;41.67;22.02;;;;;;;4.42;89.70;101392.78;5092653;28;20024;-64
2021/11/25 03:53:50;;;;;;;43.60;21.80;;;;;;;4.41;89.76;101398.16;5092693;28;20051;-63
2021/11/25 03:56:16;;;;;;;46.55;21.95;;;;;;;4.40;90.07;101393.81;5092498;28;20032;-63
2021/11/25 03:58:42;;;;;;;43.88;22.23;;;;;;;4.42;90.03;101397.22;5092639;28;20028;-63
2021/11/25 04:01:09;;;;;;;41.30;20.47;;;;;;;4.43;90.28;101397.09;5092634;28;20456;-63
2021/11/25 04:03:35;;;;;;;47.83;21.77;;;;;;;4.45;90.51;101386.44;5092597;28;20368;-63
2021/11/25 04:06:00;;;;;;;41.22;21.20;;;;;;;4.44;90.46;101387.41;5092527;28;20032;-63
2021/11/25 04:08:26;;;;;;;45.90;21.40;;;;;;;4.42;90.60;101376.94;5092421;28;20016;-63
2021/11/25 04:10:51;;;;;;;44.53;20.70;;;;;;;4.44;90.94;101374.22;5092087;28;20465;-62
2021/11/25 04:13:17;;;;;;;43.15;20.05;;;;;;;4.41;90.77;101370.00;5092189;28;20417;-63
2021/11/25 04:15:42;;;;;;;44.73;21.23;;;;;;;4.40;90.93;101370.06;5092423;28;20027;-63
2021/11/25 04:18:09;;;;;;;46.58;21.70;;;;;;;4.37;90.79;101371.09;5092451;28;20485;-63
2021/11/25 04:20:35;;;;;;;;;;;;;;;4.36;90.74;101376.47;5092667;28;20027;-62
2021/11/25 04:23:02;;;;;;;44.50;20.00;;;;;;;4.31;90.86;101369.72;5092051;28;19920;-63
2021/11/25 04:25:28;;;;;;;43.57;20.53;;;;;;;4.28;90.94;101375.19;5091936;28;20569;-62
2021/11/25 04:27:53;;;;;;;44.63;21.20;;;;;;;4.23;90.79;101376.41;5091995;28;20059;-62
2021/11/25 04:35:36;;;;;;;46.63;21.33;;;;;;;4.13;91.15;101374.34;5091912;28;20091;-63
2021/11/25 04:38:17;;;;;;;44.27;20.43;;;;;;;4.12;91.40;101372.69;5091642;28;20501;-63
2021/11/25 04:40:46;;;;;;;46.77;21.77;;;;;;;4.10;91.27;101366.66;5091744;28;20068;-63
2021/11/25 04:43:13;;;;;;;54.77;22.23;;;;;;;4.12;91.64;101363.91;5091762;28;20039;-63
2021/11/25 04:45:40;;;;;;;48.77;21.93;;;;;;;4.13;91.73;101368.25;5091891;28;20020;-62
2021/11/25 04:48:07;;;;;;;45.03;21.07;;;;;;;4.19;91.66;101365.22;5091903;28;20030;-63
2021/11/25 04:50:32;;;;;;;44.10;21.00;;;;;;;4.21;91.83;101365.97;5091663;28;20047;-63
2021/11/25 04:52:58;;;;;;;53.05;22.45;;;;;;;4.22;91.71;101358.91;5073417;28;20468;-63
2021/11/25 04:55:24;;;;;;;47.20;22.63;;;;;;;4.24;92.04;101360.50;5090998;28;20444;-64
2021/11/25 04:57:49;;;;;;;46.15;21.52;;;;;;;4.26;91.96;101357.75;5091645;28;20380;-64
2021/11/25 05:00:16;;;;;;;53.83;22.00;;;;;;;4.29;91.85;101360.19;5091649;28;20107;-64
2021/11/25 05:02:42;;;;;;;49.10;20.57;;;;;;;4.31;92.07;101359.16;5091400;28;20028;-63
2021/11/25 05:05:09;;;;;;;48.78;21.23;;;;;;;4.32;92.14;101352.94;5091441;28;20024;-63
2021/11/25 05:07:34;;;;;;;48.13;21.38;;;;;;;4.36;92.03;101347.47;5091175;28;20024;-64
2021/11/25 05:09:59;;;;;;;45.60;22.40;;;;;;;4.37;92.07;101347.34;5091551;28;20025;-63
2021/11/25 05:12:25;;;;;;;45.13;21.60;;;;;;;4.38;91.87;101348.22;5064916;22;20065;-63
2021/11/25 05:14:51;;;;;;;47.55;20.38;;;;;;;4.38;91.98;101338.50;5008745;28;20036;-63
2021/11/25 05:17:17;;;;;;;44.05;21.50;;;;;;;4.39;92.18;101328.81;5008527;28;20466;-63
2021/11/25 05:19:42;;;;;;;;;;;;;;;4.38;92.31;101327.09;5008941;28;20083;-63
2021/11/25 05:22:08;;;;;;;44.57;20.50;;;;;;;4.36;91.95;101334.25;5008429;28;19914;-63
2021/11/25 05:24:34;;;;;;;50.35;21.23;;;;;;;4.31;91.94;101338.03;5008398;28;20034;-63
2021/11/25 05:26:59;;;;;;;44.88;20.60;;;;;;;4.27;91.98;101347.13;5008277;28;20026;-64
2021/11/25 05:29:25;;;;;;;47.13;20.63;;;;;;;4.24;91.70;101352.59;5008431;28;20491;-63
2021/11/25 05:31:50;;;;;;;48.13;20.57;;;;;;;4.20;92.02;101350.22;5008319;28;20435;-64
2021/11/25 05:34:16;;;;;;;47.38;21.20;;;;;;;4.18;92.07;101352.97;5008293;28;20033;-63
2021/11/25 05:36:45;;;;;;;52.00;20.77;;;;;;;4.19;92.36;101348.53;5008194;28;20052;-64
2021/11/25 05:39:12;;;;;;;47.57;20.93;;;;;;;4.20;92.45;101342.31;4990462;28;20661;-63
2021/11/25 05:41:38;;;;;;;45.87;21.20;;;;;;;4.21;92.33;101346.66;5007969;28;20038;-63
2021/11/25 05:44:05;;;;;;;47.22;19.98;;;;;;;4.24;92.51;101343.81;5008101;28;20022;-64
2021/11/25 05:46:30;;;;;;;49.23;21.50;;;;;;;4.23;92.21;101347.38;5008073;28;20141;-64
2021/11/25 05:48:56;;;;;;;46.83;19.87;;;;;;;4.24;92.44;101346.44;5008098;28;20101;-63
2021/11/25 05:51:21;;;;;;;52.10;21.53;;;;;;;4.26;92.31;101349.84;5007982;28;20033;-64
2021/11/25 05:53:46;;;;;;;46.03;21.00;;;;;;;4.28;92.40;101350.59;5007890;28;20277;-65
2021/11/25 05:56:12;;;;;;;46.40;21.40;;;;;;;4.30;92.42;101354.81;5008151;28;20436;-63
2021/11/25 05:58:37;;;;;;;47.00;21.20;;;;;;;4.32;92.41;101350.31;5008026;28;20029;-64
2021/11/25 06:01:03;;;;;;;52.93;22.77;;;;;;;4.33;92.45;101351.13;5007853;28;20033;-64
2021/11/25 06:03:28;;;;;;;52.20;21.97;;;;;;;4.34;92.59;101347.56;5007906;28;20638;-65
2021/11/25 06:05:54;;;;;;;46.60;21.13;;;;;;;4.34;92.34;101344.91;4990318;28;20515;-65
2021/11/25 06:08:19;;;;;;;49.03;20.97;;;;;;;4.35;92.36;101338.72;5010449;28;20021;-65
2021/11/25 06:10:44;;;;;;;54.20;22.03;;;;;;;4.34;92.67;101339.66;5011491;28;20097;-64
2021/11/25 06:13:10;;;;;;;49.50;19.97;;;;;;;4.34;92.26;101336.16;5011154;28;20046;-62
2021/11/25 06:15:35;;;;;;;50.30;20.53;;;;;;;4.34;92.48;101334.38;5011339;28;20033;-62
2021/11/25 06:18:00;;;;;;;42.93;20.97;;;;;;;4.33;92.54;101327.38;5011259;28;20049;-62
2021/11/25 06:20:26;;;;;;;51.43;21.47;;;;;;;4.35;92.26;101336.06;5010801;28;20456;-63
2021/11/25 06:22:53;;;;;;;46.85;19.98;;;;;;;4.35;92.20;101330.78;5010787;28;20025;-62
2021/11/25 06:25:20;;;;;;;44.50;20.50;;;;;;;4.31;92.25;101330.13;5011034;28;20030;-62
2021/11/25 06:27:46;;;;;;;47.40;20.13;;;;;;;4.27;92.14;101331.28;5010703;28;20022;-62
2021/11/25 06:30:13;;;;;;;47.28;21.33;;;;;;;4.23;92.55;101328.91;5011058;28;20033;-61
2021/11/25 06:32:40;;;;;;;44.77;20.33;;;;;;;4.20;92.29;101322.03;5011120;28;20022;-61
2021/11/25 06:35:09;;;;;;;52.13;20.40;;;;;;;4.18;92.36;101317.81;5011124;28;20071;-61
2021/11/25 06:37:39;;;;;;;49.93;20.20;;;;;;;4.19;92.68;101320.38;4993245;28;20021;-61
2021/11/25 06:40:08;;;;;;;48.70;20.43;;;;;;;4.24;92.41;101314.78;5010769;28;20074;-61
2021/11/25 06:42:34;;;;;;;50.30;20.23;;;;;;;4.27;92.90;101312.81;5010248;28;20034;-61
2021/11/25 06:45:00;;;;;;;50.10;20.77;;;;;;;4.32;92.83;101320.41;5010895;28;20401;-62
2021/11/25 06:47:26;;;;;;;48.23;19.90;;;;;;;4.34;92.77;101315.91;5010696;28;20469;-62
2021/11/25 06:49:51;;;;;;;43.50;18.07;;;;;;;4.37;92.85;101315.69;5010808;28;20022;-62
2021/11/25 06:52:16;;;;;;;46.37;19.90;;;;;;;4.39;92.70;101312.97;5010733;28;20070;-63
2021/11/25 06:54:42;;;;;;;49.43;19.50;;;;;;;4.43;92.81;101314.47;5010481;28;20079;-62
2021/11/25 06:57:07;;;;;;;45.83;18.93;;;;;;;4.45;93.20;101313.41;5010841;28;20350;-62
2021/11/25 06:59:32;;;;;;;42.90;17.90;;;;;;;4.50;93.30;101315.75;5010696;28;20033;-62
2021/11/25 07:01:58;;;;;;;41.97;17.93;;;;;;;4.56;93.12;101309.22;5010538;28;20396;-61
2021/11/25 07:04:24;;;;;;;43.78;18.45;;;;;;;4.60;93.42;101316.84;5010556;28;20079;-63
2021/11/25 07:06:50;;;;;;;34.90;16.90;;;;;;;4.63;93.10;101311.34;5010562;28;20524;-61
2021/11/25 07:09:15;;;;;;;42.22;17.23;;;;;;;4.67;92.81;101312.00;5010334;28;20378;-61
2021/11/25 07:11:40;;;;;;;36.03;16.23;;;;;;;4.68;93.10;101311.06;5010124;28;20026;-61
2021/11/25 07:14:08;;;;;;;40.13;17.53;;;;;;;4.70;92.96;101309.16;5010352;28;20458;-62
2021/11/25 07:16:33;;;;;;;38.07;17.10;;;;;;;4.72;92.94;101315.19;5009901;28;20037;-61
2021/11/25 07:18:58;;;;;;;34.03;15.70;;;;;;;4.74;92.72;101308.00;5009658;28;20034;-62
2021/11/25 07:21:24;;;;;;;37.73;15.10;;;;;;;4.77;93.08;101307.78;5010311;28;20030;-61
2021/11/25 07:23:49;;;;;;;36.25;16.05;;;;;;;4.80;92.81;101315.50;5010046;28;20423;-62
2021/11/25 07:26:15;;;;;;;36.83;15.37;;;;;;;4.84;92.98;101320.59;5010200;28;20366;-61
2021/11/25 07:28:40;;;;;;;33.23;14.40;;;;;;;4.85;92.84;101323.13;5010257;28;20022;-60
2021/11/25 07:31:05;;;;;;;31.73;14.97;;;;;;;4.88;92.79;101320.28;5009877;28;20068;-62
2021/11/25 07:33:31;;;;;;;30.97;15.00;;;;;;;4.90;93.07;101320.16;5010155;28;20151;-61
2021/11/25 07:35:57;;;;;;;33.50;13.73;;;;;;;4.94;93.17;101319.03;5009905;28;20029;-61
2021/11/25 07:38:22;;;;;;;31.83;14.17;;;;;;;5.01;93.22;101330.03;5009938;28;20052;-61
2021/11/25 07:40:49;;;;;;;35.03;14.90;;;;;;;5.07;93.14;101334.88;5009412;28;20406;-62
2021/11/25 07:43:17;;;;;;;34.20;15.27;;;;;;;5.15;92.79;101328.16;5010092;28;20041;-61
2021/11/25 07:45:43;;;;;;;35.13;15.33;;;;;;;5.15;93.07;101333.44;5009819;28;20026;-61
2021/11/25 07:48:08;;;;;;;29.83;14.80;;;;;;;5.17;93.04;101335.97;5009976;28;20089;-61
2021/11/25 07:50:34;;;;;;;27.57;12.93;;;;;;;5.26;92.66;101330.03;5009785;28;20045;-61
2021/11/25 07:52:59;;;;;;;20.08;9.90;;;;;;;5.44;92.53;101330.59;5009705;28;20082;-62
2021/11/25 07:55:26;;;;;;;22.70;10.50;;;;;;;5.48;92.71;101324.13;5009571;28;20026;-63
2021/11/25 07:57:52;;;;;;;20.00;9.63;;;;;;;5.45;92.69;101316.41;5009667;28;20280;-62
2021/11/25 08:00:22;;;;;;;21.38;10.60;;;;;;;5.45;92.80;101324.34;5009644;28;20026;-62
2021/11/25 08:02:48;;;;;;;25.73;10.53;;;;;;;5.45;92.73;101318.19;5009636;28;20029;-63
2021/11/25 08:05:13;;;;;;;16.65;8.57;;;;;;;5.48;92.70;101320.66;5009817;28;20030;-66
2021/11/25 08:07:40;;;;;;;16.87;8.40;;;;;;;5.48;92.93;101329.41;5010022;28;20102;-62
2021/11/25 08:10:07;;;;;;;19.13;9.63;;;;;;;5.48;92.86;101324.13;5008820;28;20052;-68
2021/11/25 08:12:33;;;;;;;21.97;9.63;;;;;;;5.48;92.95;101331.22;5009098;28;20485;-67
2021/11/25 08:14:58;;;;;;;22.00;9.30;;;;;;;5.50;92.92;101331.94;4992040;28;20125;-67
2021/11/25 08:17:23;;;;;;;21.43;10.47;;;;;;;5.54;92.79;101333.47;4991308;28;20030;-62
2021/11/25 08:19:49;;;;;;;26.43;10.77;;;;;;;5.58;93.33;101340.22;5008933;28;20037;-67
2021/11/25 08:22:15;;;;;;;24.93;12.23;;;;;;;5.62;93.06;101341.69;5009174;28;20485;-67
2021/11/25 08:24:41;;;;;;;;;;;;;;;5.70;93.08;101348.22;5009743;28;20082;-66
2021/11/25 08:27:06;;;;;;;26.07;11.00;;;;;;;5.73;93.15;101342.75;5009401;28;19914;-68
2021/11/25 08:29:31;;;;;;;21.77;10.35;;;;;;;5.81;92.84;101345.69;5008183;28;20432;-68
2021/11/25 08:31:57;;;;;;;14.87;7.83;;;;;;;5.91;92.68;101343.22;5009118;28;20036;-67
2021/11/25 08:34:23;;;;;;;3.70;2.33;;;;;;;6.04;91.96;101345.88;5008951;28;20117;-67
2021/11/25 08:36:49;;;;;;;4.40;2.13;;;;;;;6.04;91.82;101345.88;5008939;28;20018;-67
2021/11/25 08:39:14;;;;;;;5.40;1.40;;;;;;;6.04;92.20;101341.44;5008854;28;20029;-65
2021/11/25 08:41:39;;;;;;;4.03;1.13;;;;;;;6.05;92.21;101340.47;5008795;28;20540;-67
2021/11/25 08:44:05;;;;;;;6.10;1.10;;;;;;;6.01;92.14;101335.53;5008768;28;20034;-66
2021/11/25 08:46:30;;;;;;;6.47;1.13;;;;;;;5.96;92.24;101336.69;5008669;28;20030;-68
2021/11/25 08:48:56;;;;;;;2.55;1.00;;;;;;;5.95;92.42;101342.91;5008979;28;20014;-68
2021/11/25 08:51:22;;;;;;;4.72;1.55;;;;;;;5.91;92.66;101340.56;5008632;28;20026;-67
2021/11/25 08:53:48;;;;;;;2.60;1.05;;;;;;;5.89;92.55;101338.03;5008899;28;20028;-61
2021/11/25 08:56:13;;;;;;;3.87;1.07;;;;;;;5.92;92.84;101327.28;5008764;28;20372;-65
2021/11/25 08:58:39;;;;;;;4.53;1.30;;;;;;;5.99;93.26;101333.00;5008874;28;20281;-68
2021/11/25 09:01:05;;;;;;;4.20;1.05;;;;;;;6.02;93.38;101340.69;5008458;28;20037;-68
2021/11/25 09:03:30;;;;;;;3.15;1.38;;;;;;;6.04;93.04;101340.59;5008817;28;20688;-67
2021/11/25 09:05:57;;;;;;;1.52;1.00;;;;;;;6.05;93.55;101342.28;5008498;28;20026;-66
2021/11/25 09:08:23;;;;;;;5.80;1.17;;;;;;;6.09;93.82;101346.41;5008426;28;20037;-68
2021/11/25 09:10:48;;;;;;;3.97;1.10;;;;;;;6.11;93.36;101345.34;5008431;28;20493;-67
2021/11/25 09:13:14;;;;;;;5.50;1.37;;;;;;;6.16;93.45;101352.97;5096095;23;20495;-67
2021/11/25 09:15:40;;;;;;;4.57;1.50;;;;;;;6.18;93.76;101348.38;5111482;28;20500;-66
2021/11/25 09:18:07;;;;;;;4.72;1.25;;;;;;;6.22;93.08;101352.50;5111582;28;20113;-68
2021/11/25 09:20:34;;;;;;;5.03;1.00;;;;;;;6.25;93.19;101354.94;5111133;28;20031;-68
2021/11/25 09:23:02;;;;;;;4.43;1.23;;;;;;;6.24;92.97;101358.53;5111379;28;20024;-67
2021/11/25 09:25:29;;;;;;;4.17;1.20;;;;;;;6.21;92.62;101361.41;5103067;28;20539;-61
2021/11/25 09:27:54;;;;;;;;;;;;;;;6.22;92.92;101355.13;5100193;28;20437;-61
2021/11/25 09:30:20;;;;;;;4.97;1.40;;;;;;;6.29;93.07;101361.69;5101021;28;19912;-62
2021/11/25 09:32:45;;;;;;;3.70;1.23;;;;;;;6.41;92.87;101369.69;5101114;28;20020;-62
2021/11/25 09:35:11;;;;;;;7.10;1.25;;;;;;;6.50;92.53;101369.06;5100010;28;20081;-62
2021/11/25 09:37:36;;;;;;;4.77;1.20;;;;;;;6.52;91.56;101369.78;5101580;28;20019;-61
2021/11/25 09:40:02;;;;;;;3.50;1.20;;;;;;;6.61;91.57;101371.75;5101060;28;20399;-61
2021/11/25 09:42:27;;;;;;;5.32;1.25;;;;;;;6.59;91.23;101359.56;5099114;28;20498;-61
2021/11/25 09:44:53;;;;;;;1.53;0.70;;;;;;;6.62;90.77;101359.38;5101364;28;20024;-61
2021/11/25 09:47:18;;;;;;;3.60;1.03;;;;;;;6.62;89.99;101354.91;5099512;28;20059;-61
2021/11/25 09:49:45;;;;;;;4.55;1.23;;;;;;;6.59;89.02;101354.28;5091638;28;20032;-65
2021/11/25 09:52:11;;;;;;;5.13;1.30;;;;;;;6.55;85.90;101358.94;5090714;28;20432;-61
2021/11/25 09:54:37;;;;;;;4.18;1.55;;;;;;;6.46;83.65;101355.19;5072860;28;20360;-75
2021/11/25 09:57:02;;;;;;;5.38;1.10;;;;;;;6.39;81.61;101353.94;5090707;28;20031;-65
2021/11/25 09:59:28;;;;;;;4.77;1.10;;;;;;;6.39;84.65;101355.75;5090541;28;20016;-66
2021/11/25 10:01:54;;;;;;;2.97;1.10;;;;;;;6.44;83.83;101359.72;5090602;28;20304;-66
2021/11/25 10:04:19;;;;;;;3.08;1.10;;;;;;;6.48;84.98;101363.00;5090626;28;20031;-62
2021/11/25 10:06:53;;;;;;;4.80;1.10;;;;;;;6.51;84.99;101367.25;5090641;28;20567;-61
2021/11/25 10:09:39;;;;;;;3.47;1.00;;;;;;;6.61;85.28;101366.44;5090601;28;20174;-62
2021/11/25 10:12:35;;;;;;;6.00;1.00;;;;;;;6.85;85.23;101372.69;5090141;28;20110;-68
2021/11/25 10:15:01;;;;;;;5.43;1.00;;;;;;;7.15;86.33;101373.03;5090505;28;20112;-68
2021/11/25 10:17:47;;;;;;;10.40;1.23;;;;;;;7.44;77.81;101358.53;5090421;28;20024;-66
2021/11/25 10:20:15;;;;;;;7.13;1.63;;;;;;;7.48;77.20;101357.31;5090486;28;20468;-70
2021/11/25 10:23:01;;;;;;;5.53;1.20;;;;;;;7.55;76.65;101358.56;5090296;28;20482;-63
2021/11/25 10:25:44;;;;;;;3.43;1.13;;;;;;;7.61;73.78;101366.00;5090240;28;20437;-62
2021/11/25 10:28:30;;;;;;;4.07;1.10;;;;;;;7.63;75.99;101368.56;5090547;28;20106;-62
2021/11/25 10:31:11;;;;;;;4.57;1.08;;;;;;;7.71;78.24;101379.41;5090241;28;20024;-62
2021/11/25 10:33:49;;;;;;;5.60;1.40;;;;;;;7.83;77.23;101380.28;5090149;28;20488;-64
2021/11/25 10:36:34;;;;;;;4.20;1.08;;;;;;;7.86;74.71;101380.00;5090289;28;20028;-64
2021/11/25 10:39:15;;;;;;;6.33;1.50;;;;;;;7.79;73.40;101381.47;5089859;28;20032;-62
2021/11/25 10:41:46;;;;;;;4.00;1.33;;;;;;;7.65;72.54;101385.19;5090041;28;20092;-63
2021/11/25 10:44:19;;;;;;;5.30;1.87;;;;;;;7.44;73.73;101377.09;5090108;28;20020;-63
2021/11/25 10:46:55;;;;;;;10.43;2.63;;;;;;;7.34;74.28;101384.06;5090078;28;20028;-63
2021/11/25 10:49:42;;;;;;;4.07;1.08;;;;;;;7.24;75.06;101383.91;5090057;28;20024;-63
2021/11/25 10:52:30;;;;;;;8.65;1.98;;;;;;;7.19;74.44;101378.13;5090145;28;20420;-62
2021/11/25 10:55:00;;;;;;;5.10;1.53;;;;;;;7.21;74.37;101384.13;5030818;28;20037;-62
2021/11/25 10:57:36;;;;;;;6.07;1.33;;;;;;;7.23;74.50;101376.94;5030861;28;20079;-63
2021/11/25 11:00:08;;;;;;;8.85;1.67;;;;;;;7.28;74.49;101380.91;5030824;28;20037;-63
2021/11/25 11:02:33;;;;;;;8.80;2.47;;;;;;;7.30;74.24;101373.69;5030478;28;20048;-63
2021/11/25 11:05:10;;;;;;;9.23;1.77;;;;;;;7.34;74.26;101384.06;5030822;28;20496;-62
2021/11/25 11:07:39;;;;;;;9.98;1.55;;;;;;;7.41;72.74;101390.59;5030744;28;20158;-63
2021/11/25 11:10:26;;;;;;;6.37;2.00;;;;;;;7.48;71.70;101386.50;5030809;28;20108;-63
2021/11/25 11:13:14;;;;;;;4.85;1.77;;;;;;;7.50;70.02;101375.75;5030184;28;20132;-63
2021/11/25 11:16:28;;;;;;;6.67;1.77;;;;;;;7.55;70.59;101377.13;5030736;28;20033;-62
2021/11/25 11:18:53;;;;;;;9.73;1.60;;;;;;;7.63;69.34;101379.19;5027416;28;20382;-63
2021/11/25 11:21:27;;;;;;;7.88;1.25;;;;;;;7.69;70.03;101369.88;5030261;28;20441;-62
2021/11/25 11:23:54;;;;;;;6.77;1.60;;;;;;;7.72;70.22;101369.63;5030452;28;20516;-63
2021/11/25 11:26:20;;;;;;;4.20;1.80;;;;;;;7.78;70.23;101372.66;5030252;28;20493;-62
2021/11/25 11:28:45;;;;;;;8.45;1.80;;;;;;;7.80;68.81;101372.53;5030115;28;20032;-64